Time;durP1;ratioP1;P1;durP2;ratioP2;P2;SDS_P1;SDS_P2;PMS_P1;PMS_P2;Temp;Humidity;BMP_temperature;BMP_pressure;BME280_temperature;BME280_humidity;BME280_pressure;Samples;Min_cycle;Max_cycle;Signal;HPM_P1;HPM_P2
2023/10/23 00:23:47;;;;;;;20.30;12.60;;;;;;;10.65;100.00;98412.06;435302;1263;99224;-40
2023/10/23 00:33:50;;;;;;;22.60;12.50;;;;;;;10.57;100.00;98410.70;435214;1254;112883;-41
2023/10/23 00:53:59;;;;;;;26.90;16.40;;;;;;;10.46;100.00;98426.42;435255;1264;99269;-41
2023/10/23 01:14:07;;;;;;;21.60;14.10;;;;;;;10.29;100.00;98437.44;436555;1251;99250;-40
2023/10/23 01:24:12;;;;;;;23.60;16.40;;;;;;;10.21;100.00;98432.75;436209;1252;110898;-40
2023/10/23 01:34:16;;;;;;;37.20;21.60;;;;;;;10.14;100.00;98435.65;436143;1247;107954;-40
2023/10/23 01:44:19;;;;;;;26.30;16.80;;;;;;;10.07;100.00;98443.02;436170;1254;99209;-41
2023/10/23 01:54:23;;;;;;;24.20;16.50;;;;;;;9.99;100.00;98441.99;436352;1248;106816;-40
2023/10/23 02:04:27;;;;;;;18.70;13.30;;;;;;;10.01;100.00;98442.52;436258;1253;99212;-40
2023/10/23 02:14:30;;;;;;;21.40;13.90;;;;;;;10.08;100.00;98439.13;436302;1253;110758;-41
2023/10/23 02:24:34;;;;;;;21.50;13.40;;;;;;;10.09;100.00;98434.76;436423;1252;108054;-40
2023/10/23 02:34:37;;;;;;;24.70;14.50;;;;;;;9.97;100.00;98433.98;436273;1253;99348;-40
2023/10/23 02:44:45;;;;;;;18.50;13.10;;;;;;;9.96;100.00;98438.06;436206;1253;108741;-41
2023/10/23 03:04:52;;;;;;;17.80;12.20;;;;;;;9.97;100.00;98460.11;436346;1248;111982;-39
2023/10/23 03:15:00;;;;;;;18.30;12.30;;;;;;;10.00;100.00;98460.67;436134;1248;107938;-40
2023/10/23 03:35:05;;;;;;;22.70;14.50;;;;;;;9.77;99.91;98463.52;435993;1253;108244;-40
2023/10/23 03:45:09;;;;;;;20.70;14.50;;;;;;;9.69;99.97;98469.80;436190;1248;99218;-41
2023/10/23 03:55:14;;;;;;;23.30;13.10;;;;;;;9.70;99.95;98474.96;436168;1252;110979;-39
2023/10/23 04:05:21;;;;;;;33.00;13.10;;;;;;;9.70;99.93;98481.62;436290;1247;108711;-41
2023/10/23 04:15:30;;;;;;;23.00;13.20;;;;;;;9.73;100.00;98474.20;436316;1253;99376;-39
2023/10/23 04:25:34;;;;;;;17.40;11.70;;;;;;;9.76;99.98;98478.54;436331;1247;108432;-39
2023/10/23 04:35:37;;;;;;;22.80;11.80;;;;;;;9.76;99.97;98490.59;436292;1253;99705;-41
2023/10/23 04:45:41;;;;;;;15.70;11.20;;;;;;;9.79;100.00;98497.98;436273;1247;111423;-41
2023/10/23 05:05:48;;;;;;;16.30;9.80;;;;;;;9.81;99.96;98504.92;436266;1252;99227;-39
2023/10/23 05:15:51;;;;;;;18.30;10.80;;;;;;;9.79;99.84;98506.60;436250;1248;108224;-40
2023/10/23 05:25:55;;;;;;;37.60;15.10;;;;;;;9.82;99.95;98521.50;436407;1247;98827;-41
2023/10/23 05:46:06;;;;;;;29.30;17.30;;;;;;;9.73;99.87;98553.40;436284;1253;107421;-40
2023/10/23 05:56:10;;;;;;;29.50;17.20;;;;;;;9.69;100.00;98556.95;436366;1253;99208;-39
2023/10/23 06:06:14;;;;;;;27.60;16.10;;;;;;;9.68;99.71;98572.68;436206;1252;107489;-40
2023/10/23 06:16:18;;;;;;;25.70;14.70;;;;;;;9.68;99.73;98584.95;436406;1253;99225;-40
2023/10/23 06:26:22;;;;;;;28.10;14.70;;;;;;;9.77;99.86;98598.44;436186;1253;112184;-42
2023/10/23 06:36:25;;;;;;;23.50;12.90;;;;;;;9.92;99.88;98605.95;436308;1253;109465;-41
2023/10/23 06:46:28;;;;;;;19.60;13.30;;;;;;;10.01;99.91;98608.61;436360;1250;99112;-40
2023/10/23 06:56:32;;;;;;;21.50;14.40;;;;;;;10.02;99.78;98610.38;436163;1248;108721;-40
2023/10/23 07:06:35;;;;;;;24.90;15.60;;;;;;;9.91;99.48;98616.05;436323;1251;98276;-40
2023/10/23 07:16:43;;;;;;;29.00;12.90;;;;;;;10.06;99.77;98623.36;436322;1252;111977;-41
2023/10/23 07:26:46;;;;;;;24.20;14.10;;;;;;;10.28;99.76;98627.27;436171;1254;106557;-41
2023/10/23 07:36:49;;;;;;;28.50;15.70;;;;;;;10.44;99.58;98631.94;436295;1253;99244;-40
2023/10/23 07:46:53;;;;;;;23.70;14.90;;;;;;;10.60;99.78;98630.24;436235;1250;108559;-40
2023/10/23 07:56:57;;;;;;;23.20;14.70;;;;;;;10.65;99.60;98634.17;436332;1252;98009;-40
2023/10/23 08:07:00;;;;;;;22.80;13.40;;;;;;;10.73;99.52;98630.11;436280;1247;111801;-40
2023/10/23 08:27:06;;;;;;;21.80;10.40;;;;;;;11.17;99.37;98646.17;436240;1253;99227;-40
2023/10/23 08:37:10;;;;;;;18.70;11.50;;;;;;;11.21;99.28;98648.41;436229;1253;108361;-41
2023/10/23 08:47:14;;;;;;;18.90;11.60;;;;;;;11.22;99.41;98650.55;436255;1253;99313;-40
2023/10/23 09:07:23;;;;;;;25.30;12.30;;;;;;;11.63;99.44;98651.44;436216;1248;106927;-40
2023/10/23 09:17:30;;;;;;;24.30;10.50;;;;;;;12.17;99.84;98653.45;436302;1251;99237;-40
2023/10/23 09:27:35;;;;;;;20.60;11.90;;;;;;;12.34;99.38;98665.36;436302;1248;107917;-40
2023/10/23 09:37:38;;;;;;;31.40;15.40;;;;;;;12.38;99.12;98667.80;436300;1247;98905;-40
2023/10/23 09:47:45;;;;;;;22.00;14.00;;;;;;;12.42;98.93;98661.13;436344;1253;112500;-40
2023/10/23 10:07:54;;;;;;;29.70;15.80;;;;;;;12.77;98.83;98651.31;436220;1253;99204;-41
2023/10/23 10:18:01;;;;;;;24.70;12.60;;;;;;;12.81;98.61;98632.13;436342;1253;107716;-41
2023/10/23 10:28:07;;;;;;;21.30;11.60;;;;;;;12.94;98.87;98624.33;436280;1248;99221;-40
2023/10/23 10:48:22;;;;;;;19.40;8.00;;;;;;;13.39;98.41;98618.73;436274;1248;108719;-41
2023/10/23 10:58:26;;;;;;;10.80;7.20;;;;;;;13.77;97.99;98611.13;436158;1250;98025;-40
2023/10/23 11:08:30;;;;;;;17.20;8.00;;;;;;;13.87;97.83;98609.48;436254;1248;107723;-41
2023/10/23 11:18:34;;;;;;;16.90;7.90;;;;;;;13.99;97.79;98604.05;436236;1251;99215;-40
2023/10/23 11:28:38;;;;;;;7.70;5.20;;;;;;;14.57;97.67;98596.92;436208;1252;111039;-40
2023/10/23 11:38:44;;;;;;;10.10;5.80;;;;;;;15.28;96.98;98588.89;436195;1253;109369;-40
2023/10/23 11:48:48;;;;;;;7.40;3.90;;;;;;;15.72;96.14;98587.61;436286;1248;98041;-40
2023/10/23 11:58:55;;;;;;;8.10;3.70;;;;;;;15.95;95.24;98592.50;436418;1252;109480;-40
2023/10/23 12:08:59;;;;;;;5.10;1.90;;;;;;;16.21;93.52;98595.14;436320;1252;99252;-41
2023/10/23 12:19:03;;;;;;;5.90;2.80;;;;;;;16.42;92.70;98595.07;436471;1253;111272;-40
2023/10/23 12:29:09;;;;;;;7.70;2.30;;;;;;;16.59;91.67;98586.03;436187;1253;108248;-40
2023/10/23 12:49:16;;;;;;;9.60;2.80;;;;;;;16.32;89.74;98580.03;436288;1248;108652;-40
2023/10/23 12:59:19;;;;;;;10.40;4.40;;;;;;;15.96;89.11;98572.92;436252;1247;98021;-41
2023/10/23 13:09:23;;;;;;;12.00;3.70;;;;;;;16.02;89.13;98571.59;436158;1253;112032;-41
2023/10/23 13:19:26;;;;;;;9.50;4.20;;;;;;;16.30;88.83;98560.65;436340;1255;108207;-40
2023/10/23 13:29:32;;;;;;;7.80;3.70;;;;;;;16.39;88.23;98555.96;436217;1253;98068;-40
2023/10/23 13:49:38;;;;;;;9.80;3.50;;;;;;;16.48;86.78;98543.44;436438;1253;99227;-41
2023/10/23 13:59:42;;;;;;;8.30;3.00;;;;;;;16.27;85.63;98549.08;436462;1252;110845;-40
2023/10/23 14:09:46;;;;;;;11.90;4.30;;;;;;;16.05;85.53;98544.61;436402;1261;107170;-40
2023/10/23 14:19:52;;;;;;;7.30;3.30;;;;;;;15.78;85.46;98544.71;436341;1253;98000;-40
2023/10/23 14:30:00;;;;;;;9.90;3.00;;;;;;;15.41;85.05;98544.23;436448;1250;108311;-41
2023/10/23 14:40:05;;;;;;;7.90;4.20;;;;;;;15.11;85.16;98541.16;436236;1261;99094;-40
2023/10/23 14:50:09;;;;;;;10.10;5.80;;;;;;;14.83;85.32;98544.02;436154;1253;110525;-40
2023/10/23 15:00:14;;;;;;;13.90;7.90;;;;;;;14.64;85.52;98547.53;436243;1253;107528;-40
2023/10/23 15:10:20;;;;;;;15.60;9.00;;;;;;;14.27;85.56;98547.96;436228;1253;99237;-42
2023/10/23 15:20:29;;;;;;;16.40;8.70;;;;;;;13.75;86.00;98550.52;436293;1253;108524;-41
2023/10/23 15:40:39;;;;;;;11.40;5.40;;;;;;;12.80;86.53;98553.23;436273;1253;111821;-40
2023/10/23 15:50:43;;;;;;;20.30;8.00;;;;;;;12.47;86.90;98551.83;436280;1251;107401;-40
2023/10/23 16:00:45;;;;;;;26.70;11.70;;;;;;;12.12;87.35;98559.21;436420;1252;99688;-41
2023/10/23 16:10:51;;;;;;;52.80;25.70;;;;;;;11.77;87.64;98561.48;436475;1251;108462;-40
2023/10/23 16:30:57;;;;;;;90.00;47.60;;;;;;;11.11;87.96;98556.33;436441;1261;111239;-40
2023/10/23 16:41:04;;;;;;;90.60;48.20;;;;;;;10.89;88.33;98546.14;436130;1248;109284;-41
2023/10/23 16:51:08;;;;;;;91.50;51.80;;;;;;;10.69;88.65;98541.98;436240;1253;99585;-40
2023/10/23 17:01:11;;;;;;;73.90;42.60;;;;;;;10.64;88.91;98545.20;436286;1254;108685;-39
2023/10/23 17:11:15;;;;;;;88.60;52.50;;;;;;;10.45;89.01;98542.86;436208;1254;99179;-41
2023/10/23 17:21:19;;;;;;;85.30;53.00;;;;;;;10.09;89.11;98541.39;436231;1252;110256;-39
2023/10/23 17:31:23;;;;;;;80.40;53.00;;;;;;;9.81;89.00;98540.00;436274;1261;107627;-40
2023/10/23 17:41:26;;;;;;;79.70;47.00;;;;;;;9.64;89.41;98536.42;436272;1253;99223;-42
2023/10/23 17:51:30;;;;;;;71.70;46.90;;;;;;;9.60;89.33;98536.00;436227;1253;109340;-39
2023/10/23 18:01:43;;;;;;;94.00;58.20;;;;;;;9.18;89.01;98530.16;436306;1254;97985;-41
2023/10/23 18:11:46;;;;;;;108.20;71.30;;;;;;;8.87;89.63;98531.10;436346;1254;112385;-41
2023/10/23 18:21:50;;;;;;;97.20;65.70;;;;;;;8.76;89.77;98519.93;436533;1254;108378;-40
2023/10/23 18:31:53;;;;;;;102.30;63.90;;;;;;;8.71;89.81;98520.02;436314;1253;99290;-39
2023/10/23 18:41:57;;;;;;;102.90;58.00;;;;;;;8.77;90.73;98512.45;436263;1254;108069;-40
2023/10/23 18:51:59;;;;;;;96.30;58.20;;;;;;;8.97;90.90;98513.06;436206;1248;99352;-40
2023/10/23 19:02:02;;;;;;;91.70;54.10;;;;;;;8.94;90.90;98504.97;436198;1252;111727;-41
2023/10/23 19:22:10;;;;;;;99.10;61.40;;;;;;;8.47;90.52;98514.91;436538;1251;98489;-40
2023/10/23 19:32:19;;;;;;;97.40;63.50;;;;;;;8.33;90.77;98513.84;436357;1247;108092;-40
2023/10/23 19:42:33;;;;;;;120.40;69.90;;;;;;;8.33;91.24;98516.27;436242;1253;99192;-40
2023/10/23 20:02:40;;;;;;;119.30;64.80;;;;;;;8.57;92.09;98498.77;435990;1254;107503;-42
2023/10/23 20:22:51;;;;;;;112.10;64.60;;;;;;;8.38;91.93;98491.83;436338;1254;107767;-41
2023/10/23 20:32:55;;;;;;;86.60;51.60;;;;;;;8.23;91.78;98495.75;436198;1253;99191;-40
2023/10/23 20:42:59;;;;;;;85.50;49.10;;;;;;;8.11;91.68;98497.52;436092;1253;111818;-40
2023/10/23 20:53:04;;;;;;;86.00;50.70;;;;;;;8.12;91.99;98491.70;436111;1253;108575;-40
2023/10/23 21:03:07;;;;;;;95.80;58.90;;;;;;;8.10;92.13;98487.75;436266;1248;98881;-40
2023/10/23 21:13:29;;;;;;;102.30;56.70;;;;;;;7.99;92.29;98477.46;436429;1258;108471;-40
2023/10/23 21:23:33;;;;;;;94.30;53.70;;;;;;;7.81;91.88;98469.48;436132;1254;99243;-41
2023/10/23 21:43:42;;;;;;;91.70;51.90;;;;;;;7.65;92.00;98483.91;436035;1248;107682;-40
2023/10/23 21:53:46;;;;;;;84.20;46.20;;;;;;;7.59;92.06;98471.61;436167;1248;99208;-40
2023/10/23 22:03:51;;;;;;;78.40;44.20;;;;;;;7.54;92.31;98443.91;436337;1248;106440;-40
2023/10/23 22:13:53;;;;;;;92.50;48.40;;;;;;;7.47;92.39;98429.64;436382;1248;99250;-40
2023/10/23 22:34:00;;;;;;;75.60;41.60;;;;;;;7.12;91.90;98409.09;436373;1248;107892;-40
2023/10/23 22:44:03;;;;;;;72.70;42.10;;;;;;;6.95;91.79;98407.17;436272;1252;99227;-40
2023/10/23 22:54:08;;;;;;;85.00;46.10;;;;;;;6.85;91.96;98406.47;436266;1254;109113;-40
2023/10/23 23:04:15;;;;;;;72.50;44.60;;;;;;;6.76;92.10;98407.45;436319;1253;99293;-40
2023/10/23 23:14:28;;;;;;;78.60;43.30;;;;;;;6.62;92.52;98402.83;436358;1253;111353;-40
2023/10/23 23:24:31;;;;;;;74.80;41.10;;;;;;;6.64;92.64;98392.11;436228;1253;108466;-40
2023/10/23 23:44:43;;;;;;;68.20;37.30;;;;;;;6.75;92.69;98368.80;436409;1263;108456;-40
2023/10/23 23:54:50;;;;;;;75.90;43.70;;;;;;;6.66;92.61;98361.41;436407;1254;99240;-40
